Time;durP1;ratioP1;P1;durP2;ratioP2;P2;SDS_P1;SDS_P2;PMS_P1;PMS_P2;Temp;Humidity;BMP_temperature;BMP_pressure;BME280_temperature;BME280_humidity;BME280_pressure;Samples;Min_cycle;Max_cycle;Signal;HPM_P1;HPM_P2
2024/04/10 00:00:22;;;;;;;;;;;;;;;12.31;55.44;100507.41;4478575;26;20019;-72
2024/04/10 00:02:22;;;;;;;;;;;;;;;12.37;54.93;100505.16;4480962;26;19935;-73
2024/04/10 00:04:22;;;;;;;;;;;;;;;12.34;55.10;100500.88;4485287;26;19998;-73
2024/04/10 00:06:23;;;;;;;;;;;;;;;12.42;55.00;100500.19;4480405;26;20006;-72
2024/04/10 00:08:24;;;;;;;;;;;;;;;12.40;55.12;100494.97;4478632;26;19976;-72
2024/04/10 00:10:25;;;;;;;;;;;;;;;12.33;55.11;100488.47;4477161;26;19983;-71
2024/04/10 00:12:25;;;;;;;;;;;;;;;12.39;54.86;100481.69;4479829;26;19933;-72
2024/04/10 00:14:26;;;;;;;;;;;;;;;12.38;54.41;100496.09;4479271;26;19929;-72
2024/04/10 00:16:27;;;;;;;;;;;;;;;12.43;54.46;100486.59;4483257;26;19928;-72
2024/04/10 00:18:28;;;;;;;;;;;;;;;12.29;54.61;100487.09;4498341;26;19935;-71
2024/04/10 00:20:28;;;;;;;;;;;;;;;12.27;54.66;100497.97;4484729;26;20265;-71
2024/04/10 00:22:29;;;;;;;;;;;;;;;12.36;54.91;100503.44;4483967;26;19929;-72
2024/04/10 00:24:29;;;;;;;;;;;;;;;12.21;54.87;100508.41;4491754;26;19935;-73
2024/04/10 00:26:31;;;;;;;;;;;;;;;12.25;55.19;100518.72;4497133;26;19930;-78
2024/04/10 00:28:31;;;;;;;;;;;;;;;12.25;55.13;100524.06;4496511;26;19937;-73
2024/04/10 00:30:31;;;;;;;;;;;;;;;12.23;54.73;100531.41;4492375;26;19937;-72
2024/04/10 00:32:32;;;;;;;;;;;;;;;12.21;55.05;100528.00;4482343;26;19929;-71
2024/04/10 00:34:32;;;;;;;;;;;;;;;12.22;55.30;100531.56;4484750;26;20020;-72
2024/04/10 00:36:32;;;;;;;;;;;;;;;12.21;55.05;100538.72;4478903;26;19977;-72
2024/04/10 00:38:33;;;;;;;;;;;;;;;12.18;55.02;100525.63;4479643;26;19933;-72
2024/04/10 00:40:33;;;;;;;;;;;;;;;12.09;54.98;100524.66;4477743;26;19941;-72
2024/04/10 00:42:34;;;;;;;;;;;;;;;12.01;55.08;100525.34;4478425;26;20380;-72
2024/04/10 00:44:44;;;;;;;;;;;;;;;11.94;55.43;100520.69;4478513;26;19929;-72
2024/04/10 00:46:44;;;;;;;;;;;;;;;11.96;54.94;100519.56;4478734;26;20466;-73
2024/04/10 00:48:44;;;;;;;;;;;;;;;12.12;54.63;100523.50;4478643;26;19937;-72
2024/04/10 00:50:45;;;;;;;;;;;;;;;11.88;54.68;100530.16;4475637;26;19983;-73
2024/04/10 00:52:46;;;;;;;;;;;;;;;11.85;54.93;100522.38;4475633;26;19928;-72
2024/04/10 00:54:47;;;;;;;;;;;;;;;11.84;54.99;100526.91;4478946;26;19944;-72
2024/04/10 00:56:47;;;;;;;;;;;;;;;11.90;54.74;100528.19;4476868;26;19933;-71
2024/04/10 00:58:48;;;;;;;;;;;;;;;11.95;54.51;100539.31;4478025;26;20249;-72
2024/04/10 01:00:48;;;;;;;;;;;;;;;11.91;54.15;100540.56;4476478;26;19988;-72
2024/04/10 01:02:49;;;;;;;;;;;;;;;11.94;54.26;100542.13;4478483;26;20425;-72
2024/04/10 01:04:49;;;;;;;;;;;;;;;11.99;53.77;100546.13;4479699;26;19936;-72
2024/04/10 01:06:49;;;;;;;;;;;;;;;11.79;54.40;100553.25;4478721;26;19937;-72
2024/04/10 01:08:50;;;;;;;;;;;;;;;11.70;54.44;100552.28;4478103;26;19933;-72
2024/04/10 01:10:50;;;;;;;;;;;;;;;11.53;55.04;100559.16;4477326;26;19936;-72
2024/04/10 01:12:50;;;;;;;;;;;;;;;11.73;54.26;100559.19;4478388;26;20466;-73
2024/04/10 01:14:51;;;;;;;;;;;;;;;11.77;54.44;100560.56;4478367;26;19929;-72
2024/04/10 01:16:52;;;;;;;;;;;;;;;11.65;54.73;100554.50;4478220;26;19941;-72
2024/04/10 01:18:52;;;;;;;;;;;;;;;11.61;54.50;100558.47;4478235;26;19929;-72
2024/04/10 01:20:53;;;;;;;;;;;;;;;11.73;54.37;100550.28;4479835;26;19935;-72
2024/04/10 01:22:53;;;;;;;;;;;;;;;11.65;54.32;100549.16;4490125;26;20023;-72
2024/04/10 01:24:53;;;;;;;;;;;;;;;11.50;54.63;100547.88;4492632;26;19929;-73
2024/04/10 01:26:54;;;;;;;;;;;;;;;11.58;54.39;100550.72;4496145;26;19929;-72
2024/04/10 01:28:54;;;;;;;;;;;;;;;11.67;54.05;100552.53;4496704;26;19929;-72
2024/04/10 01:30:54;;;;;;;;;;;;;;;11.62;53.89;100559.31;4495311;26;19937;-72
2024/04/10 01:32:55;;;;;;;;;;;;;;;11.57;54.30;100567.75;4492252;26;19936;-71
2024/04/10 01:34:55;;;;;;;;;;;;;;;11.55;54.00;100564.38;4485362;26;19953;-72
2024/04/10 01:36:55;;;;;;;;;;;;;;;11.49;54.31;100573.78;4481245;26;20636;-72
2024/04/10 01:38:56;;;;;;;;;;;;;;;11.50;54.32;100570.13;4477867;26;19935;-72
2024/04/10 01:40:56;;;;;;;;;;;;;;;11.51;54.09;100581.72;4468114;26;20329;-72
2024/04/10 01:42:56;;;;;;;;;;;;;;;11.48;54.17;100584.66;4474137;26;20628;-73
2024/04/10 01:44:58;;;;;;;;;;;;;;;11.43;54.65;100593.09;4474658;26;19929;-72
2024/04/10 01:46:58;;;;;;;;;;;;;;;11.49;54.17;100591.69;4456607;26;19945;-72
2024/04/10 01:48:59;;;;;;;;;;;;;;;11.32;54.60;100611.94;4481637;26;19937;-73
2024/04/10 01:50:59;;;;;;;;;;;;;;;11.25;54.78;100600.91;4467981;26;20262;-72
2024/04/10 01:53:00;;;;;;;;;;;;;;;11.49;54.24;100599.72;4487564;26;19936;-72
2024/04/10 01:55:01;;;;;;;;;;;;;;;11.31;54.35;100607.56;4481491;26;19937;-72
2024/04/10 01:57:01;;;;;;;;;;;;;;;11.32;54.81;100609.25;4474844;26;20378;-73
2024/04/10 01:59:02;;;;;;;;;;;;;;;11.12;55.11;100611.84;4451499;26;19936;-73
2024/04/10 02:01:03;;;;;;;;;;;;;;;11.16;55.03;100612.44;4451593;26;19936;-72
2024/04/10 02:03:03;;;;;;;;;;;;;;;11.42;54.44;100607.47;4451574;26;19973;-73
2024/04/10 02:05:04;;;;;;;;;;;;;;;11.25;55.07;100614.28;4451966;26;19930;-73
2024/04/10 02:07:04;;;;;;;;;;;;;;;11.11;55.35;100620.84;4451609;26;20286;-73
2024/04/10 02:09:04;;;;;;;;;;;;;;;11.04;55.15;100628.59;4451269;26;19946;-73
2024/04/10 02:11:26;;;;;;;;;;;;;;;10.99;55.50;100624.63;4450187;26;19937;-72
2024/04/10 02:13:26;;;;;;;;;;;;;;;11.18;55.11;100629.22;4451204;26;19936;-73
2024/04/10 02:15:26;;;;;;;;;;;;;;;11.03;55.08;100636.75;4451085;26;19937;-73
2024/04/10 02:17:27;;;;;;;;;;;;;;;11.02;55.32;100643.06;4450683;26;19933;-73
2024/04/10 02:19:27;;;;;;;;;;;;;;;11.05;55.49;100637.47;4461655;26;19950;-73
2024/04/10 02:21:28;;;;;;;;;;;;;;;11.04;55.11;100643.78;4462892;26;20008;-72
2024/04/10 02:23:28;;;;;;;;;;;;;;;10.98;55.36;100647.00;4465117;26;19930;-72
2024/04/10 02:25:32;;;;;;;;;;;;;;;10.90;55.68;100648.53;4466719;26;19940;-72
2024/04/10 02:27:33;;;;;;;;;;;;;;;10.98;55.98;100658.53;4466467;26;20013;-73
2024/04/10 02:29:35;;;;;;;;;;;;;;;10.76;55.98;100654.19;4466584;26;19946;-72
2024/04/10 02:31:36;;;;;;;;;;;;;;;10.79;56.26;100658.44;4455678;26;19930;-72
2024/04/10 02:33:37;;;;;;;;;;;;;;;10.75;56.43;100660.53;4460755;26;19945;-72
2024/04/10 02:35:38;;;;;;;;;;;;;;;10.74;56.40;100661.50;4482896;26;19931;-73
2024/04/10 02:37:39;;;;;;;;;;;;;;;10.83;56.61;100658.03;4483052;26;19962;-72
2024/04/10 02:39:40;;;;;;;;;;;;;;;10.60;56.90;100662.66;4484678;26;19936;-72
2024/04/10 02:41:40;;;;;;;;;;;;;;;10.71;56.71;100657.25;4483466;26;19929;-72
2024/04/10 02:43:40;;;;;;;;;;;;;;;10.74;56.44;100662.34;4483575;26;19929;-73
2024/04/10 02:45:41;;;;;;;;;;;;;;;10.66;56.79;100667.50;4479012;26;19939;-71
2024/04/10 02:47:41;;;;;;;;;;;;;;;10.73;56.63;100668.69;4480157;26;19929;-73
2024/04/10 02:49:42;;;;;;;;;;;;;;;10.81;56.46;100667.16;4480622;26;19949;-71
2024/04/10 02:51:42;;;;;;;;;;;;;;;10.75;56.63;100669.41;4479637;26;19945;-72
2024/04/10 02:53:42;;;;;;;;;;;;;;;10.82;56.37;100669.72;4477163;26;20296;-72
2024/04/10 02:55:43;;;;;;;;;;;;;;;10.88;56.63;100676.34;4479223;26;19929;-72
2024/04/10 02:57:43;;;;;;;;;;;;;;;10.70;56.75;100676.13;4479650;26;19937;-71
2024/04/10 02:59:44;;;;;;;;;;;;;;;10.90;56.05;100672.59;4479386;26;19937;-72
2024/04/10 03:01:45;;;;;;;;;;;;;;;11.00;56.13;100675.31;4480121;26;19929;-72
2024/04/10 03:03:45;;;;;;;;;;;;;;;10.91;56.15;100678.78;4479971;26;20250;-72
2024/04/10 03:05:46;;;;;;;;;;;;;;;11.07;55.69;100683.66;4479792;26;19937;-71
2024/04/10 03:07:47;;;;;;;;;;;;;;;11.14;55.66;100681.31;4478160;26;19944;-71
2024/04/10 03:09:47;;;;;;;;;;;;;;;11.07;55.55;100675.63;4479265;26;19929;-72
2024/04/10 03:11:47;;;;;;;;;;;;;;;11.01;56.04;100681.50;4480070;26;19937;-72
2024/04/10 03:13:48;;;;;;;;;;;;;;;11.00;56.05;100678.00;4479922;26;19956;-73
2024/04/10 03:15:48;;;;;;;;;;;;;;;11.22;55.45;100682.31;4478529;26;19957;-72
2024/04/10 03:17:48;;;;;;;;;;;;;;;11.21;55.37;100685.97;4488337;26;19974;-72
2024/04/10 03:19:49;;;;;;;;;;;;;;;11.07;55.73;100689.84;4492660;26;19929;-72
2024/04/10 03:21:49;;;;;;;;;;;;;;;11.24;55.58;100693.75;4480024;26;20316;-72
2024/04/10 03:23:49;;;;;;;;;;;;;;;11.10;55.63;100695.94;4478278;26;19929;-72
2024/04/10 03:25:59;;;;;;;;;;;;;;;10.95;55.96;100690.06;4480076;26;20040;-72
2024/04/10 03:27:59;;;;;;;;;;;;;;;11.14;55.72;100706.22;4479490;26;19936;-72
2024/04/10 03:30:00;;;;;;;;;;;;;;;11.27;55.05;100695.31;4480249;26;19929;-73
2024/04/10 03:32:01;;;;;;;;;;;;;;;11.22;55.66;100698.38;4488654;26;20242;-71
2024/04/10 03:34:02;;;;;;;;;;;;;;;11.31;55.19;100698.56;4481399;26;19929;-72
2024/04/10 03:36:04;;;;;;;;;;;;;;;11.20;55.51;100711.03;4479954;26;19937;-72
2024/04/10 03:38:05;;;;;;;;;;;;;;;11.15;55.93;100710.59;4480114;26;20246;-72
2024/04/10 03:40:06;;;;;;;;;;;;;;;11.11;55.64;100711.00;4479050;26;19929;-72
2024/04/10 03:42:07;;;;;;;;;;;;;;;11.19;55.44;100708.50;4479622;26;19997;-72
2024/04/10 03:44:07;;;;;;;;;;;;;;;11.34;55.11;100712.53;4488127;26;19998;-72
2024/04/10 03:46:10;;;;;;;;;;;;;;;11.22;55.13;100714.44;4480287;26;19929;-72
2024/04/10 03:48:10;;;;;;;;;;;;;;;11.20;55.48;100715.56;4481115;26;19989;-73
2024/04/10 03:50:10;;;;;;;;;;;;;;;11.32;55.32;100711.84;4480720;26;19929;-72
2024/04/10 03:52:10;;;;;;;;;;;;;;;11.50;54.33;100716.56;4484192;26;20378;-72
2024/04/10 03:54:11;;;;;;;;;;;;;;;11.47;54.61;100712.31;4480991;26;20000;-72
2024/04/10 03:56:11;;;;;;;;;;;;;;;11.45;54.37;100719.63;4479685;26;19945;-73
2024/04/10 03:58:11;;;;;;;;;;;;;;;11.27;55.22;100726.59;4479391;26;19929;-73
2024/04/10 04:00:12;;;;;;;;;;;;;;;11.39;54.96;100731.72;4477109;26;19929;-72
2024/04/10 04:02:13;;;;;;;;;;;;;;;11.27;55.16;100732.78;4479520;26;19939;-72
2024/04/10 04:04:14;;;;;;;;;;;;;;;11.11;55.36;100733.25;4479460;26;19959;-72
2024/04/10 04:06:14;;;;;;;;;;;;;;;11.13;55.19;100736.66;4478438;26;20358;-72
2024/04/10 04:08:15;;;;;;;;;;;;;;;11.20;54.99;100747.69;4478958;26;19936;-71
2024/04/10 04:10:15;;;;;;;;;;;;;;;11.12;55.30;100744.81;4475287;26;20006;-72
2024/04/10 04:12:16;;;;;;;;;;;;;;;11.38;55.01;100745.25;4474990;26;19937;-72
2024/04/10 04:14:16;;;;;;;;;;;;;;;11.39;54.77;100747.78;4476869;26;19961;-72
2024/04/10 04:16:16;;;;;;;;;;;;;;;11.43;55.00;100748.38;4479891;26;20516;-72
2024/04/10 04:18:17;;;;;;;;;;;;;;;11.50;54.79;100756.72;4477881;26;19929;-72
2024/04/10 04:20:17;;;;;;;;;;;;;;;11.33;54.98;100752.81;4477493;26;20362;-71
2024/04/10 04:22:17;;;;;;;;;;;;;;;11.27;55.28;100756.88;4477664;26;19929;-72
2024/04/10 04:24:18;;;;;;;;;;;;;;;11.31;54.95;100765.47;4478231;26;19935;-72
2024/04/10 04:26:19;;;;;;;;;;;;;;;11.34;55.11;100767.91;4478202;26;19933;-72
2024/04/10 04:28:19;;;;;;;;;;;;;;;11.39;54.68;100771.00;4477755;26;19933;-72
2024/04/10 04:30:19;;;;;;;;;;;;;;;11.31;55.38;100782.41;4477423;26;19940;-72
2024/04/10 04:32:20;;;;;;;;;;;;;;;11.36;55.01;100780.16;4478110;26;19929;-73
2024/04/10 04:34:20;;;;;;;;;;;;;;;11.28;55.44;100785.34;4477988;26;19952;-73
2024/04/10 04:36:20;;;;;;;;;;;;;;;11.24;55.35;100786.59;4478211;26;19974;-73
2024/04/10 04:38:21;;;;;;;;;;;;;;;11.09;55.54;100791.41;4476601;26;19929;-72
2024/04/10 04:40:21;;;;;;;;;;;;;;;11.15;55.43;100793.56;4477242;26;19962;-72
2024/04/10 04:42:21;;;;;;;;;;;;;;;11.19;55.28;100797.66;4479034;26;19935;-72
2024/04/10 04:44:22;;;;;;;;;;;;;;;11.36;55.19;100801.59;4483682;26;19961;-72
2024/04/10 04:46:24;;;;;;;;;;;;;;;11.22;55.23;100810.78;4490394;26;19975;-74
2024/04/10 04:48:24;;;;;;;;;;;;;;;11.14;55.38;100815.13;4488900;26;19936;-72
2024/04/10 04:50:24;;;;;;;;;;;;;;;11.18;55.04;100814.72;4487579;26;19936;-73
2024/04/10 04:52:25;;;;;;;;;;;;;;;11.18;55.27;100814.72;4492576;26;19937;-72
2024/04/10 04:54:25;;;;;;;;;;;;;;;11.26;55.24;100819.41;4478323;26;19933;-72
2024/04/10 04:56:25;;;;;;;;;;;;;;;11.29;55.37;100826.34;4480349;26;19936;-72
2024/04/10 04:58:26;;;;;;;;;;;;;;;11.32;54.94;100821.56;4480619;26;20574;-73
2024/04/10 05:00:26;;;;;;;;;;;;;;;11.06;55.78;100832.63;4482350;26;20357;-73
2024/04/10 05:02:27;;;;;;;;;;;;;;;11.18;55.35;100835.25;4481103;26;19937;-74
2024/04/10 05:06:46;;;;;;;;;;;;;;;11.18;55.54;100838.81;4481158;26;19962;-72
2024/04/10 05:08:47;;;;;;;;;;;;;;;11.08;55.95;100836.03;4480798;26;19940;-72
2024/04/10 05:10:48;;;;;;;;;;;;;;;10.92;56.17;100830.28;4480807;26;19929;-72
2024/04/10 05:12:49;;;;;;;;;;;;;;;11.04;56.32;100839.97;4485796;26;19969;-72
2024/04/10 05:14:50;;;;;;;;;;;;;;;11.02;55.99;100841.91;4481098;26;20369;-72
2024/04/10 05:16:51;;;;;;;;;;;;;;;11.14;55.92;100849.91;4480592;26;19936;-72
2024/04/10 05:18:51;;;;;;;;;;;;;;;10.97;56.17;100857.50;4479120;26;19929;-73
2024/04/10 05:20:52;;;;;;;;;;;;;;;10.84;56.31;100854.16;4480053;26;19929;-72
2024/04/10 05:22:53;;;;;;;;;;;;;;;10.77;56.57;100864.50;4480635;26;19929;-71
2024/04/10 05:24:53;;;;;;;;;;;;;;;10.57;56.75;100858.97;4480649;26;20027;-73
2024/04/10 05:26:53;;;;;;;;;;;;;;;10.73;57.10;100863.03;4478994;26;19940;-71
2024/04/10 05:28:54;;;;;;;;;;;;;;;10.64;56.92;100870.00;4480799;26;20349;-72
2024/04/10 05:31:04;;;;;;;;;;;;;;;10.84;56.71;100872.88;4478623;26;19937;-73
2024/04/10 05:33:04;;;;;;;;;;;;;;;10.77;56.53;100870.69;4480042;26;19940;-73
2024/04/10 05:35:06;;;;;;;;;;;;;;;11.00;55.90;100867.94;4480815;26;19929;-73
2024/04/10 05:37:06;;;;;;;;;;;;;;;10.93;56.12;100870.28;4480654;26;20299;-72
2024/04/10 05:39:07;;;;;;;;;;;;;;;10.68;57.03;100871.44;4480557;26;19973;-72
2024/04/10 05:41:07;;;;;;;;;;;;;;;10.71;56.59;100887.25;4478749;26;19933;-73
2024/04/10 05:43:07;;;;;;;;;;;;;;;10.82;56.69;100886.34;4478482;26;19929;-72
2024/04/10 05:45:08;;;;;;;;;;;;;;;10.94;56.10;100884.53;4480432;26;20611;-71
2024/04/10 05:47:08;;;;;;;;;;;;;;;10.87;56.28;100885.97;4480104;26;20035;-72
2024/04/10 05:49:10;;;;;;;;;;;;;;;11.01;56.40;100887.50;4484354;26;19998;-71
2024/04/10 05:51:10;;;;;;;;;;;;;;;11.00;56.24;100886.69;4477374;26;19943;-73
2024/04/10 05:53:11;;;;;;;;;;;;;;;10.88;56.02;100882.31;4480383;26;19929;-73
2024/04/10 05:55:11;;;;;;;;;;;;;;;10.73;57.12;100884.44;4479934;26;19936;-72
2024/04/10 05:57:11;;;;;;;;;;;;;;;10.65;56.89;100886.88;4480148;26;19941;-72
2024/04/10 05:59:12;;;;;;;;;;;;;;;10.90;55.97;100893.75;4480064;26;19929;-71
2024/04/10 06:01:12;;;;;;;;;;;;;;;11.02;56.13;100892.75;4479129;26;19928;-72
2024/04/10 06:03:13;;;;;;;;;;;;;;;10.91;56.26;100907.00;4478698;26;19936;-72
2024/04/10 06:05:13;;;;;;;;;;;;;;;10.89;56.46;100914.31;4480313;26;20270;-71
2024/04/10 06:07:13;;;;;;;;;;;;;;;10.79;56.76;100915.19;4479060;26;19957;-71
2024/04/10 06:09:14;;;;;;;;;;;;;;;10.55;56.83;100916.22;4479938;26;20327;-71
2024/04/10 06:11:14;;;;;;;;;;;;;;;10.76;56.14;100919.81;4479618;26;19929;-71
2024/04/10 06:13:15;;;;;;;;;;;;;;;10.75;56.59;100933.31;4478335;26;20176;-72
2024/04/10 06:15:15;;;;;;;;;;;;;;;10.90;56.34;100928.53;4480001;26;20656;-72
2024/04/10 06:17:16;;;;;;;;;;;;;;;10.99;56.06;100937.66;4480475;26;19936;-71
2024/04/10 06:19:16;;;;;;;;;;;;;;;10.82;56.17;100939.00;4490591;26;20357;-73
2024/04/10 06:21:17;;;;;;;;;;;;;;;10.72;57.12;100945.09;4483706;26;19929;-72
2024/04/10 06:23:17;;;;;;;;;;;;;;;10.64;57.18;100949.34;4480019;26;19933;-71
2024/04/10 06:25:17;;;;;;;;;;;;;;;10.82;56.35;100960.41;4479511;26;19944;-72
2024/04/10 06:27:17;;;;;;;;;;;;;;;10.88;56.80;100957.22;4480556;26;19929;-71
2024/04/10 06:29:18;;;;;;;;;;;;;;;10.74;56.70;100951.19;4481915;26;20361;-71
2024/04/10 06:31:18;;;;;;;;;;;;;;;10.98;56.57;100955.50;4477525;26;20029;-71
2024/04/10 06:33:19;;;;;;;;;;;;;;;11.10;56.29;100967.03;4485299;26;19935;-72
2024/04/10 06:35:19;;;;;;;;;;;;;;;10.67;56.71;100959.81;4480513;26;19941;-72
2024/04/10 06:37:20;;;;;;;;;;;;;;;10.52;57.21;100961.88;4479884;26;19929;-72
2024/04/10 06:39:20;;;;;;;;;;;;;;;10.40;57.66;100967.22;4481090;26;19992;-72
2024/04/10 06:41:20;;;;;;;;;;;;;;;10.93;56.25;100971.94;4479570;26;20366;-72
2024/04/10 06:43:21;;;;;;;;;;;;;;;10.67;56.82;100971.38;4479438;26;20002;-73
2024/04/10 06:45:21;;;;;;;;;;;;;;;10.87;56.91;100968.91;4480839;26;19929;-71
2024/04/10 06:47:22;;;;;;;;;;;;;;;11.02;56.22;100975.69;4480411;26;19936;-72
2024/04/10 06:49:23;;;;;;;;;;;;;;;10.89;56.75;100973.16;4482601;26;19935;-71
2024/04/10 06:51:25;;;;;;;;;;;;;;;10.93;57.04;100976.44;4487720;26;20348;-72
2024/04/10 06:53:25;;;;;;;;;;;;;;;11.11;56.53;100979.44;4491595;26;19939;-73
2024/04/10 06:55:26;;;;;;;;;;;;;;;11.45;55.64;100975.78;4487916;26;19929;-73
2024/04/10 06:57:26;;;;;;;;;;;;;;;11.34;55.72;100974.84;4488330;26;19987;-73
2024/04/10 06:59:27;;;;;;;;;;;;;;;11.55;55.18;100972.25;4492422;26;19929;-73
2024/04/10 07:01:27;;;;;;;;;;;;;;;11.04;56.23;100978.25;4491662;26;19975;-73
2024/04/10 07:03:28;;;;;;;;;;;;;;;11.26;55.94;100982.69;4490763;26;20019;-72
2024/04/10 07:05:28;;;;;;;;;;;;;;;11.13;56.30;100985.50;4483781;26;19936;-72
2024/04/10 07:07:29;;;;;;;;;;;;;;;11.03;56.24;100984.56;4481870;26;20315;-73
2024/04/10 07:09:29;;;;;;;;;;;;;;;11.41;55.11;100977.88;4479460;26;19998;-72
2024/04/10 07:11:31;;;;;;;;;;;;;;;11.31;55.51;100982.28;4479468;26;19929;-73
2024/04/10 07:13:34;;;;;;;;;;;;;;;11.60;54.57;100987.06;4478162;26;19929;-72
2024/04/10 07:15:34;;;;;;;;;;;;;;;11.49;55.41;100988.81;4479932;26;19929;-73
2024/04/10 07:17:34;;;;;;;;;;;;;;;11.66;54.83;100989.25;4479151;26;19940;-72
2024/04/10 07:19:35;;;;;;;;;;;;;;;11.27;55.26;100987.06;4478782;26;20323;-72
2024/04/10 07:21:35;;;;;;;;;;;;;;;11.61;54.57;100997.66;4476145;26;20623;-72
2024/04/10 07:23:37;;;;;;;;;;;;;;;11.69;54.42;100999.69;4479287;26;19937;-72
2024/04/10 07:25:38;;;;;;;;;;;;;;;11.35;54.96;101008.69;4480006;26;19929;-72
2024/04/10 07:27:38;;;;;;;;;;;;;;;11.28;55.20;101012.00;4479583;26;20606;-72
2024/04/10 07:29:38;;;;;;;;;;;;;;;11.55;54.89;101014.22;4477702;26;19933;-72
2024/04/10 07:31:39;;;;;;;;;;;;;;;11.62;54.56;101019.91;4479088;26;19941;-72
2024/04/10 07:33:40;;;;;;;;;;;;;;;11.47;54.92;101016.69;4480262;26;19965;-72
2024/04/10 07:35:40;;;;;;;;;;;;;;;11.86;54.39;101022.38;4487571;26;19929;-72
2024/04/10 07:37:42;;;;;;;;;;;;;;;11.97;53.61;101019.69;4479077;26;19933;-72
2024/04/10 07:39:44;;;;;;;;;;;;;;;12.31;53.34;101019.47;4478796;26;19929;-72
2024/04/10 07:41:44;;;;;;;;;;;;;;;12.38;53.05;101029.63;4478275;26;20368;-72
2024/04/10 07:43:44;;;;;;;;;;;;;;;12.56;52.58;101021.84;4479056;26;19928;-72
2024/04/10 07:45:45;;;;;;;;;;;;;;;12.74;52.34;101024.75;4479398;26;19940;-72
2024/04/10 07:47:45;;;;;;;;;;;;;;;12.73;52.11;101025.75;4483989;26;19928;-76
2024/04/10 07:49:46;;;;;;;;;;;;;;;12.53;52.60;101031.00;4485900;26;19937;-73
2024/04/10 07:51:46;;;;;;;;;;;;;;;12.51;52.50;101032.97;4477912;26;19936;-72
2024/04/10 07:53:47;;;;;;;;;;;;;;;12.89;51.75;101027.91;4479515;26;20377;-71
2024/04/10 07:55:47;;;;;;;;;;;;;;;12.98;51.49;101035.16;4480761;26;19933;-71
2024/04/10 07:57:47;;;;;;;;;;;;;;;13.49;50.04;101035.13;4480746;26;19929;-71
2024/04/10 07:59:48;;;;;;;;;;;;;;;13.67;49.47;101035.31;4478427;26;19933;-73
2024/04/10 08:01:48;;;;;;;;;;;;;;;13.43;49.93;101033.00;4478982;26;20726;-71
2024/04/10 08:03:50;;;;;;;;;;;;;;;13.37;50.30;101037.91;4483928;26;19943;-72
2024/04/10 08:05:50;;;;;;;;;;;;;;;13.16;50.44;101042.53;4485817;26;20246;-73
2024/04/10 08:07:51;;;;;;;;;;;;;;;12.83;50.84;101040.03;4486763;26;19936;-72
2024/04/10 08:09:51;;;;;;;;;;;;;;;13.01;50.94;101045.59;4484585;26;19949;-72
2024/04/10 08:11:51;;;;;;;;;;;;;;;13.07;50.75;101034.34;4484447;26;19937;-72
2024/04/10 08:13:52;;;;;;;;;;;;;;;12.92;50.93;101046.41;4478626;26;19998;-73
2024/04/10 08:15:58;;;;;;;;;;;;;;;13.04;50.47;101042.66;4477705;26;19936;-72
2024/04/10 08:17:59;;;;;;;;;;;;;;;13.18;50.40;101049.47;4478322;26;19936;-72
2024/04/10 08:19:59;;;;;;;;;;;;;;;13.55;49.61;101050.72;4477226;26;19929;-72
2024/04/10 08:21:59;;;;;;;;;;;;;;;13.31;49.77;101064.50;4478037;26;20369;-72
2024/04/10 08:23:59;;;;;;;;;;;;;;;13.24;50.16;101058.81;4477604;26;19929;-72
2024/04/10 08:26:00;;;;;;;;;;;;;;;13.14;49.89;101066.81;4478554;26;20002;-71
2024/04/10 08:28:01;;;;;;;;;;;;;;;13.56;49.02;101066.69;4478498;26;19999;-72
2024/04/10 08:30:01;;;;;;;;;;;;;;;13.54;48.82;101062.44;4477824;26;19929;-72
2024/04/10 08:32:01;;;;;;;;;;;;;;;14.16;47.79;101063.00;4488805;26;19957;-72
2024/04/10 08:34:01;;;;;;;;;;;;;;;14.28;47.97;101061.00;4488533;26;20165;-71
2024/04/10 08:36:02;;;;;;;;;;;;;;;14.96;45.69;101054.59;4490114;26;19929;-71
2024/04/10 08:38:03;;;;;;;;;;;;;;;14.86;45.28;101063.69;4490257;26;19936;-74
2024/04/10 08:40:03;;;;;;;;;;;;;;;14.91;45.51;101058.72;4487871;26;20245;-71
2024/04/10 08:42:04;;;;;;;;;;;;;;;15.17;45.06;101060.72;4487729;26;19932;-71
2024/04/10 08:44:06;;;;;;;;;;;;;;;14.68;45.95;101067.16;4490437;26;19937;-72
2024/04/10 08:46:07;;;;;;;;;;;;;;;14.98;45.07;101067.91;4490468;26;19929;-78
2024/04/10 08:48:08;;;;;;;;;;;;;;;14.70;45.59;101064.31;4492657;26;19928;-72
2024/04/10 08:50:08;;;;;;;;;;;;;;;15.10;44.70;101072.09;4489649;26;19975;-73
2024/04/10 08:52:08;;;;;;;;;;;;;;;15.55;43.71;101056.09;4488153;26;20269;-71
2024/04/10 08:54:09;;;;;;;;;;;;;;;15.49;44.05;101070.19;4487806;26;19933;-70
2024/04/10 08:56:10;;;;;;;;;;;;;;;15.98;42.78;101059.88;4488246;26;19929;-71
2024/04/10 08:58:12;;;;;;;;;;;;;;;16.52;41.37;101053.53;4485950;26;19936;-71
2024/04/10 09:00:12;;;;;;;;;;;;;;;17.05;40.49;101053.47;4483038;26;20243;-72
2024/04/10 09:02:13;;;;;;;;;;;;;;;16.08;41.26;101054.41;4482179;26;19929;-71
2024/04/10 09:04:13;;;;;;;;;;;;;;;16.09;41.22;101066.88;4479620;26;19929;-71
2024/04/10 09:06:14;;;;;;;;;;;;;;;15.69;42.26;101070.88;4478846;26;19935;-71
2024/04/10 09:08:14;;;;;;;;;;;;;;;16.50;40.62;101063.63;4478022;26;19929;-71
2024/04/10 09:10:14;;;;;;;;;;;;;;;16.76;40.23;101062.75;4476969;26;19929;-71
2024/04/10 09:12:21;;;;;;;;;;;;;;;16.98;38.76;101069.47;4480994;26;19961;-71
2024/04/10 09:14:21;;;;;;;;;;;;;;;17.24;38.40;101061.31;4480983;26;19929;-70
2024/04/10 09:16:21;;;;;;;;;;;;;;;17.54;37.81;101077.94;4477847;26;19936;-71
2024/04/10 09:18:22;;;;;;;;;;;;;;;17.15;37.43;101067.69;4479202;26;19949;-71
2024/04/10 09:20:22;;;;;;;;;;;;;;;16.94;37.29;101081.63;4481996;26;19936;-72
2024/04/10 09:22:22;;;;;;;;;;;;;;;16.56;37.67;101081.03;4475955;26;19930;-72
2024/04/10 09:24:24;;;;;;;;;;;;;;;16.08;38.47;101081.38;4477391;26;19929;-71
2024/04/10 09:26:24;;;;;;;;;;;;;;;15.69;39.49;101077.09;4477216;26;19977;-72
2024/04/10 09:28:24;;;;;;;;;;;;;;;16.15;39.03;101077.03;4477180;26;19933;-71
2024/04/10 09:30:24;;;;;;;;;;;;;;;16.44;38.69;101085.84;4477750;26;19929;-71
2024/04/10 09:32:25;;;;;;;;;;;;;;;16.13;38.92;101081.75;4482132;26;20242;-72
2024/04/10 09:34:26;;;;;;;;;;;;;;;15.96;39.13;101091.56;4473029;26;19936;-72
2024/04/10 09:36:26;;;;;;;;;;;;;;;15.73;39.63;101089.28;4479828;26;19971;-72
2024/04/10 09:38:27;;;;;;;;;;;;;;;15.28;40.18;101096.38;4476547;26;19939;-72
2024/04/10 09:40:29;;;;;;;;;;;;;;;15.84;39.68;101099.00;4476013;26;19929;-72
2024/04/10 09:42:31;;;;;;;;;;;;;;;15.97;39.14;101090.53;4483899;26;19952;-71
2024/04/10 09:44:32;;;;;;;;;;;;;;;16.53;38.44;101093.84;4479637;26;19936;-72
2024/04/10 09:46:36;;;;;;;;;;;;;;;16.24;39.28;101098.69;4479854;26;19930;-71
2024/04/10 09:48:42;;;;;;;;;;;;;;;16.45;38.84;101099.19;4479911;26;20674;-72
2024/04/10 09:50:45;;;;;;;;;;;;;;;15.88;39.86;101105.81;4479079;26;19999;-72
2024/04/10 09:52:47;;;;;;;;;;;;;;;16.51;38.76;101098.56;4477956;26;19932;-71
2024/04/10 09:54:48;;;;;;;;;;;;;;;16.40;39.12;101101.50;4479956;26;19929;-71
2024/04/10 09:56:48;;;;;;;;;;;;;;;16.68;38.57;101101.34;4482919;26;19936;-71
2024/04/10 09:58:49;;;;;;;;;;;;;;;17.19;37.86;101103.34;4484553;26;19929;-71
2024/04/10 10:00:50;;;;;;;;;;;;;;;17.99;36.34;101094.78;4483076;26;19928;-72
2024/04/10 10:03:01;;;;;;;;;;;;;;;17.93;35.65;101103.53;4481549;26;20520;-71
2024/04/10 10:05:02;;;;;;;;;;;;;;;17.73;35.50;101108.41;4479618;26;19929;-72
2024/04/10 10:07:02;;;;;;;;;;;;;;;18.37;35.00;101100.50;4479389;26;19941;-71
2024/04/10 10:09:05;;;;;;;;;;;;;;;18.28;35.26;101095.28;4478745;26;19937;-71
2024/04/10 10:11:05;;;;;;;;;;;;;;;17.38;36.59;101099.53;4479022;26;19929;-71
2024/04/10 10:13:06;;;;;;;;;;;;;;;17.38;36.54;101103.06;4477683;26;20439;-71
2024/04/10 10:15:07;;;;;;;;;;;;;;;17.08;37.15;101109.88;4479622;26;20448;-71
2024/04/10 10:17:08;;;;;;;;;;;;;;;17.67;36.02;101099.09;4479529;26;19936;-71
2024/04/10 10:19:18;;;;;;;;;;;;;;;17.96;35.42;101103.22;4479653;26;19929;-71
2024/04/10 10:21:20;;;;;;;;;;;;;;;17.51;36.30;101101.78;4476535;26;19983;-71